sensor_id;sensor_type;location;lat;lon;timestamp;pressure;altitude;pressure_sealevel;temperature;humidity
57192;BME280;43052;52.588;13.396;2023-08-06T00:00:03;100382.53;;;17.20;79.84
57192;BME280;43052;52.588;13.396;2023-08-06T00:02:50;100389.53;;;17.21;80.01
57192;BME280;43052;52.588;13.396;2023-08-06T00:05:18;100382.53;;;17.20;79.98
57192;BME280;43052;52.588;13.396;2023-08-06T00:07:46;100387.13;;;17.15;79.88
57192;BME280;43052;52.588;13.396;2023-08-06T00:10:11;100396.00;;;17.14;80.61
57192;BME280;43052;52.588;13.396;2023-08-06T00:12:44;100400.88;;;17.23;80.66
57192;BME280;43052;52.588;13.396;2023-08-06T00:15:11;100384.63;;;17.12;81.09
57192;BME280;43052;52.588;13.396;2023-08-06T00:17:42;100389.03;;;17.12;81.21
57192;BME280;43052;52.588;13.396;2023-08-06T00:20:16;100384.63;;;17.12;81.07
57192;BME280;43052;52.588;13.396;2023-08-06T00:22:44;100383.38;;;17.21;81.02
57192;BME280;43052;52.588;13.396;2023-08-06T00:25:10;100364.41;;;17.11;81.29
57192;BME280;43052;52.588;13.396;2023-08-06T00:27:58;100357.31;;;17.12;81.40
57192;BME280;43052;52.588;13.396;2023-08-06T00:30:23;100358.22;;;17.11;81.45
57192;BME280;43052;52.588;13.396;2023-08-06T00:32:49;100354.94;;;17.05;81.55
57192;BME280;43052;52.588;13.396;2023-08-06T00:35:14;100365.13;;;17.15;82.19
57192;BME280;43052;52.588;13.396;2023-08-06T00:37:43;100354.81;;;17.09;81.91
57192;BME280;43052;52.588;13.396;2023-08-06T00:40:08;100371.25;;;17.15;81.75
57192;BME280;43052;52.588;13.396;2023-08-06T00:42:47;100362.59;;;17.12;82.00
57192;BME280;43052;52.588;13.396;2023-08-06T00:45:14;100360.09;;;17.09;81.85
57192;BME280;43052;52.588;13.396;2023-08-06T00:47:53;100358.31;;;17.09;81.74
57192;BME280;43052;52.588;13.396;2023-08-06T00:50:22;100358.22;;;17.11;81.67
57192;BME280;43052;52.588;13.396;2023-08-06T00:52:51;100358.19;;;17.12;81.79
57192;BME280;43052;52.588;13.396;2023-08-06T00:55:22;100367.66;;;17.18;81.58
57192;BME280;43052;52.588;13.396;2023-08-06T00:57:48;100356.41;;;17.13;81.77
57192;BME280;43052;52.588;13.396;2023-08-06T01:00:21;100352.00;;;17.13;81.81
57192;BME280;43052;52.588;13.396;2023-08-06T01:02:48;100344.25;;;17.09;81.56
57192;BME280;43052;52.588;13.396;2023-08-06T01:05:16;100340.72;;;17.08;81.54
57192;BME280;43052;52.588;13.396;2023-08-06T01:07:54;100362.31;;;17.19;81.58
57192;BME280;43052;52.588;13.396;2023-08-06T01:13:47;100353.91;;;17.10;81.72
57192;BME280;43052;52.588;13.396;2023-08-06T01:16:19;100360.84;;;17.12;81.72
57192;BME280;43052;52.588;13.396;2023-08-06T01:18:48;100361.69;;;17.13;81.93
57192;BME280;43052;52.588;13.396;2023-08-06T01:21:19;100352.22;;;17.07;81.66
57192;BME280;43052;52.588;13.396;2023-08-06T01:23:51;100337.59;;;16.98;81.75
57192;BME280;43052;52.588;13.396;2023-08-06T01:29:48;100329.59;;;17.00;81.96
57192;BME280;43052;52.588;13.396;2023-08-06T01:32:23;100321.75;;;16.98;81.54
57192;BME280;43052;52.588;13.396;2023-08-06T01:34:50;100326.22;;;16.96;81.99
57192;BME280;43052;52.588;13.396;2023-08-06T01:37:23;100320.13;;;16.94;82.27
57192;BME280;43052;52.588;13.396;2023-08-06T01:39:57;100319.28;;;16.94;82.38
57192;BME280;43052;52.588;13.396;2023-08-06T01:42:22;100319.38;;;16.90;82.51
57192;BME280;43052;52.588;13.396;2023-08-06T01:44:53;100322.78;;;16.94;82.57
57192;BME280;43052;52.588;13.396;2023-08-06T01:47:19;100308.72;;;16.94;82.29
57192;BME280;43052;52.588;13.396;2023-08-06T01:49:44;100311.38;;;16.94;82.28
57192;BME280;43052;52.588;13.396;2023-08-06T01:52:10;100311.19;;;16.98;82.32
57192;BME280;43052;52.588;13.396;2023-08-06T01:54:38;100296.53;;;16.89;82.77
57192;BME280;43052;52.588;13.396;2023-08-06T01:57:06;100298.31;;;16.89;82.69
57192;BME280;43052;52.588;13.396;2023-08-06T01:59:31;100319.22;;;16.95;83.02
57192;BME280;43052;52.588;13.396;2023-08-06T02:01:57;100288.00;;;16.83;82.86
57192;BME280;43052;52.588;13.396;2023-08-06T02:04:22;100288.00;;;16.83;83.03
57192;BME280;43052;52.588;13.396;2023-08-06T02:06:50;100300.06;;;16.88;82.78
57192;BME280;43052;52.588;13.396;2023-08-06T02:09:25;100289.59;;;16.87;82.80
57192;BME280;43052;52.588;13.396;2023-08-06T02:11:51;100276.63;;;16.81;82.92
57192;BME280;43052;52.588;13.396;2023-08-06T02:14:19;100282.09;;;16.76;83.07
57192;BME280;43052;52.588;13.396;2023-08-06T02:16:47;100285.47;;;16.80;83.24
57192;BME280;43052;52.588;13.396;2023-08-06T02:19:15;100285.53;;;16.78;83.35
57192;BME280;43052;52.588;13.396;2023-08-06T02:24:42;100269.19;;;16.68;83.63
57192;BME280;43052;52.588;13.396;2023-08-06T02:27:07;100272.56;;;16.72;83.74
57192;BME280;43052;52.588;13.396;2023-08-06T02:29:36;100269.97;;;16.70;83.27
57192;BME280;43052;52.588;13.396;2023-08-06T02:32:07;100277.84;;;16.72;83.73
57192;BME280;43052;52.588;13.396;2023-08-06T02:34:35;100267.16;;;16.75;83.87
57192;BME280;43052;52.588;13.396;2023-08-06T02:37:04;100259.44;;;16.70;83.85
57192;BME280;43052;52.588;13.396;2023-08-06T02:39:32;100267.91;;;16.79;83.81
57192;BME280;43052;52.588;13.396;2023-08-06T02:42:06;100252.25;;;16.74;83.87
57192;BME280;43052;52.588;13.396;2023-08-06T02:44:58;100277.28;;;16.86;83.81
57192;BME280;43052;52.588;13.396;2023-08-06T02:47:46;100266.06;;;16.81;83.93
57192;BME280;43052;52.588;13.396;2023-08-06T02:50:40;100263.28;;;16.84;83.90
57192;BME280;43052;52.588;13.396;2023-08-06T02:53:15;100256.50;;;16.78;83.77
57192;BME280;43052;52.588;13.396;2023-08-06T02:55:50;100239.41;;;16.65;84.25
57192;BME280;43052;52.588;13.396;2023-08-06T03:01:11;100236.59;;;16.69;84.52
57192;BME280;43052;52.588;13.396;2023-08-06T03:03:42;100233.13;;;16.67;84.37
57192;BME280;43052;52.588;13.396;2023-08-06T03:06:11;100249.59;;;16.74;84.53
57192;BME280;43052;52.588;13.396;2023-08-06T03:08:39;100242.19;;;16.62;84.70
57192;BME280;43052;52.588;13.396;2023-08-06T03:11:09;100245.00;;;16.57;85.12
57192;BME280;43052;52.588;13.396;2023-08-06T03:13:34;100240.75;;;16.53;85.03
57192;BME280;43052;52.588;13.396;2023-08-06T03:16:11;100249.56;;;16.52;85.36
57192;BME280;43052;52.588;13.396;2023-08-06T03:18:36;100249.56;;;16.52;85.70
57192;BME280;43052;52.588;13.396;2023-08-06T03:21:10;100241.84;;;16.47;85.77
57192;BME280;43052;52.588;13.396;2023-08-06T03:23:46;100226.41;;;16.36;86.02
57192;BME280;43052;52.588;13.396;2023-08-06T03:26:23;100228.31;;;16.33;86.36
57192;BME280;43052;52.588;13.396;2023-08-06T03:29:00;100229.25;;;16.32;86.32
57192;BME280;43052;52.588;13.396;2023-08-06T03:31:34;100225.88;;;16.26;86.57
57192;BME280;43052;52.588;13.396;2023-08-06T03:34:08;100213.75;;;16.22;86.63
57192;BME280;43052;52.588;13.396;2023-08-06T03:36:36;100234.44;;;16.33;86.88
57192;BME280;43052;52.588;13.396;2023-08-06T03:39:04;100200.66;;;16.19;86.83
57192;BME280;43052;52.588;13.396;2023-08-06T03:41:35;100197.19;;;16.19;86.68
57192;BME280;43052;52.588;13.396;2023-08-06T03:44:00;100191.00;;;16.20;86.66
57192;BME280;43052;52.588;13.396;2023-08-06T03:46:35;100208.41;;;16.24;86.64
57192;BME280;43052;52.588;13.396;2023-08-06T03:49:03;100189.19;;;16.20;86.63
57192;BME280;43052;52.588;13.396;2023-08-06T03:51:39;100181.28;;;16.20;86.64
57192;BME280;43052;52.588;13.396;2023-08-06T03:54:05;100178.41;;;16.26;86.80
57192;BME280;43052;52.588;13.396;2023-08-06T03:56:32;100193.88;;;16.36;86.64
57192;BME280;43052;52.588;13.396;2023-08-06T03:59:07;100192.13;;;16.36;86.34
57192;BME280;43052;52.588;13.396;2023-08-06T04:01:38;100179.97;;;16.32;86.63
57192;BME280;43052;52.588;13.396;2023-08-06T04:04:06;100178.06;;;16.36;86.53
57192;BME280;43052;52.588;13.396;2023-08-06T04:06:31;100175.25;;;16.40;86.16
57192;BME280;43052;52.588;13.396;2023-08-06T04:09:02;100174.28;;;16.43;86.37
57192;BME280;43052;52.588;13.396;2023-08-06T04:11:28;100162.75;;;16.45;86.17
57192;BME280;43052;52.588;13.396;2023-08-06T04:13:56;100170.34;;;16.53;86.16
57192;BME280;43052;52.588;13.396;2023-08-06T04:16:24;100157.22;;;16.52;86.02
57192;BME280;43052;52.588;13.396;2023-08-06T04:18:53;100153.66;;;16.53;85.99
57192;BME280;43052;52.588;13.396;2023-08-06T04:21:23;100149.00;;;16.59;85.80
57192;BME280;43052;52.588;13.396;2023-08-06T04:23:51;100160.09;;;16.68;85.64
57192;BME280;43052;52.588;13.396;2023-08-06T04:26:19;100169.41;;;16.76;85.50
57192;BME280;43052;52.588;13.396;2023-08-06T04:28:49;100150.16;;;16.74;85.48
57192;BME280;43052;52.588;13.396;2023-08-06T04:31:17;100158.66;;;16.81;85.47
57192;BME280;43052;52.588;13.396;2023-08-06T04:34:06;100163.56;;;16.90;85.01
57192;BME280;43052;52.588;13.396;2023-08-06T04:36:35;100146.16;;;16.86;85.24
57192;BME280;43052;52.588;13.396;2023-08-06T04:39:01;100137.06;;;16.94;84.81
57192;BME280;43052;52.588;13.396;2023-08-06T04:41:26;100137.63;;;17.02;84.45
57192;BME280;43052;52.588;13.396;2023-08-06T04:43:54;100128.81;;;17.01;84.41
57192;BME280;43052;52.588;13.396;2023-08-06T04:46:19;100123.22;;;17.09;84.63
57192;BME280;43052;52.588;13.396;2023-08-06T04:48:49;100134.31;;;17.17;84.98
57192;BME280;43052;52.588;13.396;2023-08-06T04:51:17;100131.28;;;17.27;84.79
57192;BME280;43052;52.588;13.396;2023-08-06T04:53:48;100118.13;;;17.25;84.27
57192;BME280;43052;52.588;13.396;2023-08-06T04:56:13;100126.91;;;17.26;84.32
57192;BME280;43052;52.588;13.396;2023-08-06T04:58:38;100121.81;;;17.21;84.34
57192;BME280;43052;52.588;13.396;2023-08-06T05:01:07;100116.41;;;17.24;83.96
57192;BME280;43052;52.588;13.396;2023-08-06T05:03:40;100110.13;;;17.27;83.90
57192;BME280;43052;52.588;13.396;2023-08-06T05:06:16;100110.00;;;17.30;83.77
57192;BME280;43052;52.588;13.396;2023-08-06T05:08:50;100112.56;;;17.31;83.71
57192;BME280;43052;52.588;13.396;2023-08-06T05:11:23;100114.94;;;17.37;83.38
57192;BME280;43052;52.588;13.396;2023-08-06T05:13:49;100115.63;;;17.43;83.03
57192;BME280;43052;52.588;13.396;2023-08-06T05:16:17;100109.59;;;17.39;83.00
57192;BME280;43052;52.588;13.396;2023-08-06T05:18:47;100119.56;;;17.53;82.73
57192;BME280;43052;52.588;13.396;2023-08-06T05:21:17;100102.19;;;17.47;82.58
57192;BME280;43052;52.588;13.396;2023-08-06T05:23:49;100105.44;;;17.54;82.51
57192;BME280;43052;52.588;13.396;2023-08-06T05:26:14;100094.38;;;17.44;82.50
57192;BME280;43052;52.588;13.396;2023-08-06T05:28:46;100088.81;;;17.50;82.09
57192;BME280;43052;52.588;13.396;2023-08-06T05:31:20;100087.75;;;17.54;82.09
57192;BME280;43052;52.588;13.396;2023-08-06T05:33:48;100090.84;;;17.64;81.83
57192;BME280;43052;52.588;13.396;2023-08-06T05:36:17;100083.78;;;17.65;81.42
57192;BME280;43052;52.588;13.396;2023-08-06T05:38:45;100083.19;;;17.77;81.09
57192;BME280;43052;52.588;13.396;2023-08-06T05:41:10;100088.78;;;17.90;80.54
57192;BME280;43052;52.588;13.396;2023-08-06T05:43:39;100080.78;;;17.92;80.35
57192;BME280;43052;52.588;13.396;2023-08-06T05:46:04;100081.44;;;17.97;80.17
57192;BME280;43052;52.588;13.396;2023-08-06T05:48:38;100082.72;;;18.07;79.98
57192;BME280;43052;52.588;13.396;2023-08-06T05:51:22;100092.25;;;18.11;79.41
57192;BME280;43052;52.588;13.396;2023-08-06T05:53:48;100082.50;;;18.12;79.29
57192;BME280;43052;52.588;13.396;2023-08-06T05:56:20;100085.66;;;18.20;79.00
57192;BME280;43052;52.588;13.396;2023-08-06T05:58:45;100084.41;;;18.27;78.42
57192;BME280;43052;52.588;13.396;2023-08-06T06:01:12;100100.78;;;18.36;78.09
57192;BME280;43052;52.588;13.396;2023-08-06T06:03:38;100079.44;;;18.21;78.01
57192;BME280;43052;52.588;13.396;2023-08-06T06:06:03;100080.28;;;18.22;78.08
57192;BME280;43052;52.588;13.396;2023-08-06T06:08:28;100096.41;;;18.35;77.48
57192;BME280;43052;52.588;13.396;2023-08-06T06:10:54;100076.91;;;18.37;77.40
57192;BME280;43052;52.588;13.396;2023-08-06T06:13:19;100078.44;;;18.41;77.12
57192;BME280;43052;52.588;13.396;2023-08-06T06:15:46;100084.94;;;18.53;76.78
57192;BME280;43052;52.588;13.396;2023-08-06T06:18:12;100072.84;;;18.47;76.59
57192;BME280;43052;52.588;13.396;2023-08-06T06:20:37;100075.25;;;18.52;76.88
57192;BME280;43052;52.588;13.396;2023-08-06T06:23:02;100070.38;;;18.44;76.94
57192;BME280;43052;52.588;13.396;2023-08-06T06:25:27;100062.25;;;18.47;77.54
57192;BME280;43052;52.588;13.396;2023-08-06T06:27:53;100069.75;;;18.57;77.49
57192;BME280;43052;52.588;13.396;2023-08-06T06:30:18;100059.25;;;18.55;77.65
57192;BME280;43052;52.588;13.396;2023-08-06T06:32:46;100068.13;;;18.72;77.78
57192;BME280;43052;52.588;13.396;2023-08-06T06:35:12;100062.03;;;18.70;77.09
57192;BME280;43052;52.588;13.396;2023-08-06T06:37:37;100066.13;;;18.77;76.79
57192;BME280;43052;52.588;13.396;2023-08-06T06:40:02;100060.63;;;18.80;76.34
57192;BME280;43052;52.588;13.396;2023-08-06T06:42:32;100058.69;;;18.84;76.32
57192;BME280;43052;52.588;13.396;2023-08-06T06:44:57;100059.25;;;18.90;75.99
57192;BME280;43052;52.588;13.396;2023-08-06T06:47:22;100054.53;;;18.97;76.00
57192;BME280;43052;52.588;13.396;2023-08-06T06:49:48;100043.75;;;19.00;76.28
57192;BME280;43052;52.588;13.396;2023-08-06T06:52:14;100046.94;;;19.07;75.87
57192;BME280;43052;52.588;13.396;2023-08-06T06:54:39;100051.66;;;19.18;75.25
57192;BME280;43052;52.588;13.396;2023-08-06T06:57:07;100051.03;;;19.30;75.33
57192;BME280;43052;52.588;13.396;2023-08-06T06:59:35;100050.09;;;19.31;75.22
57192;BME280;43052;52.588;13.396;2023-08-06T07:02:00;100056.09;;;19.35;75.02
57192;BME280;43052;52.588;13.396;2023-08-06T07:04:26;100052.66;;;19.33;75.08
57192;BME280;43052;52.588;13.396;2023-08-06T07:06:51;100042.28;;;19.28;75.05
57192;BME280;43052;52.588;13.396;2023-08-06T07:09:19;100066.97;;;19.46;74.63
57192;BME280;43052;52.588;13.396;2023-08-06T07:11:59;100043.19;;;19.45;74.28
57192;BME280;43052;52.588;13.396;2023-08-06T07:14:25;100058.44;;;19.57;73.85
57192;BME280;43052;52.588;13.396;2023-08-06T07:16:51;100053.97;;;19.57;74.06
57192;BME280;43052;52.588;13.396;2023-08-06T07:19:16;100058.72;;;19.68;73.81
57192;BME280;43052;52.588;13.396;2023-08-06T07:21:41;100061.72;;;19.78;73.61
57192;BME280;43052;52.588;13.396;2023-08-06T07:24:07;100067.84;;;19.96;72.89
57192;BME280;43052;52.588;13.396;2023-08-06T07:26:32;100061.41;;;20.00;72.14
57192;BME280;43052;52.588;13.396;2023-08-06T07:29:00;100056.97;;;20.01;71.92
57192;BME280;43052;52.588;13.396;2023-08-06T07:31:26;100061.56;;;20.13;71.78
57192;BME280;43052;52.588;13.396;2023-08-06T07:33:54;100062.94;;;20.20;71.54
57192;BME280;43052;52.588;13.396;2023-08-06T07:36:20;100051.81;;;20.14;71.41
57192;BME280;43052;52.588;13.396;2023-08-06T07:38:48;100045.31;;;20.03;71.25
57192;BME280;43052;52.588;13.396;2023-08-06T07:41:23;100044.13;;;19.93;71.89
57192;BME280;43052;52.588;13.396;2023-08-06T07:43:51;100054.06;;;19.90;72.25
57192;BME280;43052;52.588;13.396;2023-08-06T07:46:16;100056.78;;;19.88;72.35
57192;BME280;43052;52.588;13.396;2023-08-06T07:48:44;100051.41;;;19.90;72.18
57192;BME280;43052;52.588;13.396;2023-08-06T07:51:12;100049.44;;;19.93;71.84
57192;BME280;43052;52.588;13.396;2023-08-06T07:53:38;100047.34;;;19.98;71.81
57192;BME280;43052;52.588;13.396;2023-08-06T07:56:03;100045.84;;;19.94;72.11
57192;BME280;43052;52.588;13.396;2023-08-06T07:58:31;100060.03;;;19.93;72.26
57192;BME280;43052;52.588;13.396;2023-08-06T08:01:00;100054.22;;;19.86;72.57
57192;BME280;43052;52.588;13.396;2023-08-06T08:03:27;100055.84;;;19.89;72.82
57192;BME280;43052;52.588;13.396;2023-08-06T08:05:57;100047.56;;;19.95;73.02
57192;BME280;43052;52.588;13.396;2023-08-06T08:08:31;100045.81;;;20.10;72.51
57192;BME280;43052;52.588;13.396;2023-08-06T08:11:04;100032.63;;;20.09;72.72
57192;BME280;43052;52.588;13.396;2023-08-06T08:13:33;100048.44;;;20.26;73.00
57192;BME280;43052;52.588;13.396;2023-08-06T08:15:59;100034.91;;;20.31;72.42
57192;BME280;43052;52.588;13.396;2023-08-06T08:18:27;100037.88;;;20.41;71.80
57192;BME280;43052;52.588;13.396;2023-08-06T08:21:02;100032.56;;;20.41;71.38
57192;BME280;43052;52.588;13.396;2023-08-06T08:23:27;100027.50;;;20.52;71.57
57192;BME280;43052;52.588;13.396;2023-08-06T08:25:52;100021.47;;;20.64;70.67
57192;BME280;43052;52.588;13.396;2023-08-06T08:28:25;100020.69;;;20.78;69.64
57192;BME280;43052;52.588;13.396;2023-08-06T08:30:53;100019.91;;;20.91;69.92
57192;BME280;43052;52.588;13.396;2023-08-06T08:33:19;100015.38;;;20.93;70.00
57192;BME280;43052;52.588;13.396;2023-08-06T08:35:45;100016.69;;;21.00;70.07
57192;BME280;43052;52.588;13.396;2023-08-06T08:38:13;100006.34;;;20.95;69.69
57192;BME280;43052;52.588;13.396;2023-08-06T08:40:47;100019.91;;;20.91;69.84
57192;BME280;43052;52.588;13.396;2023-08-06T08:43:15;100005.84;;;20.74;69.89
57192;BME280;43052;52.588;13.396;2023-08-06T08:45:44;100006.72;;;20.75;70.14
57192;BME280;43052;52.588;13.396;2023-08-06T08:48:20;99999.75;;;20.72;69.41
57192;BME280;43052;52.588;13.396;2023-08-06T08:50:52;100002.53;;;20.85;69.79
57192;BME280;43052;52.588;13.396;2023-08-06T08:53:21;99994.28;;;20.90;70.04
57192;BME280;43052;52.588;13.396;2023-08-06T08:55:48;99987.03;;;20.93;69.66
57192;BME280;43052;52.588;13.396;2023-08-06T08:58:16;99996.78;;;21.07;69.38
57192;BME280;43052;52.588;13.396;2023-08-06T09:00:57;99980.72;;;20.94;69.28
57192;BME280;43052;52.588;13.396;2023-08-06T09:03:28;99983.88;;;20.87;69.17
57192;BME280;43052;52.588;13.396;2023-08-06T09:05:57;99995.16;;;20.90;69.80
57192;BME280;43052;52.588;13.396;2023-08-06T09:08:32;99973.25;;;20.87;69.78
57192;BME280;43052;52.588;13.396;2023-08-06T09:11:09;99970.88;;;20.96;69.61
57192;BME280;43052;52.588;13.396;2023-08-06T09:13:55;99977.81;;;21.13;69.70
57192;BME280;43052;52.588;13.396;2023-08-06T09:16:47;99964.13;;;21.20;69.36
57192;BME280;43052;52.588;13.396;2023-08-06T09:19:46;99953.22;;;21.10;68.95
57192;BME280;43052;52.588;13.396;2023-08-06T09:22:16;99953.38;;;21.21;69.12
57192;BME280;43052;52.588;13.396;2023-08-06T09:25:22;99966.81;;;21.47;68.46
57192;BME280;43052;52.588;13.396;2023-08-06T09:58:44;99917.22;;;22.15;61.78
57192;BME280;43052;52.588;13.396;2023-08-06T10:04:27;99929.81;;;22.39;59.61
57192;BME280;43052;52.588;13.396;2023-08-06T10:07:22;99934.97;;;22.42;60.93
57192;BME280;43052;52.588;13.396;2023-08-06T10:10:16;99912.75;;;22.29;60.21
57192;BME280;43052;52.588;13.396;2023-08-06T10:12:52;99925.56;;;22.36;60.97
57192;BME280;43052;52.588;13.396;2023-08-06T10:15:40;99920.41;;;22.20;60.03
57192;BME280;43052;52.588;13.396;2023-08-06T10:18:31;99915.06;;;22.07;60.43
57192;BME280;43052;52.588;13.396;2023-08-06T10:25:25;99916.00;;;22.06;61.68
57192;BME280;43052;52.588;13.396;2023-08-06T10:28:41;99919.66;;;22.18;61.64
57192;BME280;43052;52.588;13.396;2023-08-06T10:59:35;99883.25;;;21.79;62.47
57192;BME280;43052;52.588;13.396;2023-08-06T11:03:00;99899.53;;;21.74;62.92
57192;BME280;43052;52.588;13.396;2023-08-06T12:32:02;99791.66;;;21.96;65.00
57192;BME280;43052;52.588;13.396;2023-08-06T12:35:11;99805.47;;;22.01;64.84
57192;BME280;43052;52.588;13.396;2023-08-06T12:47:22;99817.34;;;21.69;65.99
57192;BME280;43052;52.588;13.396;2023-08-06T12:49:56;99801.22;;;21.45;65.69
57192;BME280;43052;52.588;13.396;2023-08-06T12:59:59;99795.41;;;21.25;66.50
57192;BME280;43052;52.588;13.396;2023-08-06T13:10:05;99813.44;;;21.20;67.16
57192;BME280;43052;52.588;13.396;2023-08-06T13:19:53;99795.06;;;20.61;68.34
57192;BME280;43052;52.588;13.396;2023-08-06T13:22:24;99801.19;;;20.61;68.60
57192;BME280;43052;52.588;13.396;2023-08-06T13:24:52;99794.56;;;20.54;68.13
57192;BME280;43052;52.588;13.396;2023-08-06T13:27:25;99805.69;;;20.61;68.77
57192;BME280;43052;52.588;13.396;2023-08-06T13:29:54;99806.88;;;20.70;68.99
57192;BME280;43052;52.588;13.396;2023-08-06T13:32:25;99812.53;;;20.79;68.37
57192;BME280;43052;52.588;13.396;2023-08-06T13:34:51;99799.03;;;20.82;68.41
57192;BME280;43052;52.588;13.396;2023-08-06T13:37:25;99803.56;;;20.80;68.70
57192;BME280;43052;52.588;13.396;2023-08-06T13:39:53;99794.47;;;20.85;68.77
57192;BME280;43052;52.588;13.396;2023-08-06T13:42:41;99800.63;;;21.00;68.23
57192;BME280;43052;52.588;13.396;2023-08-06T13:45:24;99800.03;;;20.94;68.00
57192;BME280;43052;52.588;13.396;2023-08-06T13:48:32;99806.69;;;21.02;68.15
57192;BME280;43052;52.588;13.396;2023-08-06T13:51:45;99806.88;;;20.98;68.55
57192;BME280;43052;52.588;13.396;2023-08-06T13:54:31;99788.22;;;20.86;68.64
57192;BME280;43052;52.588;13.396;2023-08-06T13:57:43;99803.56;;;20.95;67.40
57192;BME280;43052;52.588;13.396;2023-08-06T14:00:13;99791.63;;;20.73;67.37
57192;BME280;43052;52.588;13.396;2023-08-06T14:02:48;99792.47;;;20.59;67.60
57192;BME280;43052;52.588;13.396;2023-08-06T14:05:26;99803.50;;;20.53;68.12
57192;BME280;43052;52.588;13.396;2023-08-06T14:07:54;99781.97;;;20.43;68.92
57192;BME280;43052;52.588;13.396;2023-08-06T14:10:55;99806.72;;;20.58;68.91
57192;BME280;43052;52.588;13.396;2023-08-06T14:14:16;99803.84;;;20.61;69.05
57192;BME280;43052;52.588;13.396;2023-08-06T14:17:08;99793.91;;;20.50;69.31
57192;BME280;43052;52.588;13.396;2023-08-06T14:22:33;99802.63;;;20.38;69.29
57192;BME280;43052;52.588;13.396;2023-08-06T14:25:02;99788.41;;;20.25;69.28
57192;BME280;43052;52.588;13.396;2023-08-06T14:30:49;99800.66;;;20.27;69.74
57192;BME280;43052;52.588;13.396;2023-08-06T14:33:21;99795.41;;;20.11;70.06
57192;BME280;43052;52.588;13.396;2023-08-06T14:36:15;99801.09;;;20.05;70.03
57192;BME280;43052;52.588;13.396;2023-08-06T14:38:40;99808.97;;;20.07;69.65
57192;BME280;43052;52.588;13.396;2023-08-06T14:41:30;99816.47;;;20.00;69.98
57192;BME280;43052;52.588;13.396;2023-08-06T14:44:16;99796.09;;;19.84;70.05
57192;BME280;43052;52.588;13.396;2023-08-06T14:49:50;99806.25;;;19.78;70.73
57192;BME280;43052;52.588;13.396;2023-08-06T14:52:18;99806.56;;;19.71;70.85
57192;BME280;43052;52.588;13.396;2023-08-06T14:55:12;99783.34;;;19.61;71.35
57192;BME280;43052;52.588;13.396;2023-08-06T15:03:38;99799.56;;;19.86;71.80
57192;BME280;43052;52.588;13.396;2023-08-06T15:09:17;99800.72;;;19.97;71.06
57192;BME280;43052;52.588;13.396;2023-08-06T15:12:03;99785.47;;;19.84;71.13
57192;BME280;43052;52.588;13.396;2023-08-06T15:14:52;99795.25;;;19.84;71.02
57192;BME280;43052;52.588;13.396;2023-08-06T15:17:51;99802.91;;;19.74;71.32
57192;BME280;43052;52.588;13.396;2023-08-06T15:23:51;99790.25;;;19.63;71.74
57192;BME280;43052;52.588;13.396;2023-08-06T15:27:12;99793.59;;;19.67;71.78
57192;BME280;43052;52.588;13.396;2023-08-06T15:29:58;99799.75;;;19.67;71.44
57192;BME280;43052;52.588;13.396;2023-08-06T15:32:50;99796.03;;;19.55;71.73
57192;BME280;43052;52.588;13.396;2023-08-06T16:13:06;99819.69;;;19.12;72.23
57192;BME280;43052;52.588;13.396;2023-08-06T16:16:04;99806.19;;;19.01;72.01
57192;BME280;43052;52.588;13.396;2023-08-06T17:39:57;99774.84;;;17.39;74.72
57192;BME280;43052;52.588;13.396;2023-08-06T17:42:41;99793.19;;;17.43;74.97
57192;BME280;43052;52.588;13.396;2023-08-06T17:48:41;99785.25;;;17.25;74.96
57192;BME280;43052;52.588;13.396;2023-08-06T17:51:06;99776.06;;;17.15;74.82
57192;BME280;43052;52.588;13.396;2023-08-06T17:53:48;99787.63;;;17.12;74.77
57192;BME280;43052;52.588;13.396;2023-08-06T17:57:01;99813.88;;;17.15;74.95
57192;BME280;43052;52.588;13.396;2023-08-06T18:02:37;99781.38;;;16.96;74.84
57192;BME280;43052;52.588;13.396;2023-08-06T18:05:12;99793.84;;;16.92;75.25
57192;BME280;43052;52.588;13.396;2023-08-06T18:08:36;99806.00;;;16.96;75.94
57192;BME280;43052;52.588;13.396;2023-08-06T18:11:40;99786.34;;;16.83;76.01
57192;BME280;43052;52.588;13.396;2023-08-06T18:14:24;99801.97;;;16.87;76.09
57192;BME280;43052;52.588;13.396;2023-08-06T18:17:30;99784.91;;;16.75;76.52
57192;BME280;43052;52.588;13.396;2023-08-06T18:20:07;99784.19;;;16.72;76.41
57192;BME280;43052;52.588;13.396;2023-08-06T18:22:35;99787.91;;;16.68;76.44
57192;BME280;43052;52.588;13.396;2023-08-06T18:25:25;99811.25;;;16.77;76.65
57192;BME280;43052;52.588;13.396;2023-08-06T18:28:10;99788.25;;;16.60;76.85
57192;BME280;43052;52.588;13.396;2023-08-06T18:30:39;99796.97;;;16.62;76.94
57192;BME280;43052;52.588;13.396;2023-08-06T18:33:05;99790.09;;;16.58;76.91
57192;BME280;43052;52.588;13.396;2023-08-06T18:35:49;99790.47;;;16.50;77.24
57192;BME280;43052;52.588;13.396;2023-08-06T18:38:25;99796.69;;;16.49;77.48
57192;BME280;43052;52.588;13.396;2023-08-06T18:41:00;99811.59;;;16.50;77.78
57192;BME280;43052;52.588;13.396;2023-08-06T18:43:26;99796.16;;;16.41;77.91
57192;BME280;43052;52.588;13.396;2023-08-06T18:45:53;99805.81;;;16.42;78.13
57192;BME280;43052;52.588;13.396;2023-08-06T18:48:18;99794.66;;;16.35;78.27
57192;BME280;43052;52.588;13.396;2023-08-06T18:50:43;99791.03;;;16.38;78.16
57192;BME280;43052;52.588;13.396;2023-08-06T18:53:08;99788.47;;;16.36;78.73
57192;BME280;43052;52.588;13.396;2023-08-06T18:55:44;99809.59;;;16.55;78.54
57192;BME280;43052;52.588;13.396;2023-08-06T18:58:16;99813.09;;;16.56;78.43